createdAt,value
2018-12-18T00:00:20.741Z,100.00
2018-12-18T00:02:50.690Z,100.00
2018-12-18T00:05:25.482Z,100.00
2018-12-18T00:07:54.613Z,100.00
2018-12-18T00:10:25.798Z,100.00
2018-12-18T00:12:55.429Z,100.00
2018-12-18T00:15:24.770Z,100.00
2018-12-18T00:17:54.009Z,100.00
2018-12-18T00:20:23.208Z,100.00
2018-12-18T00:22:52.396Z,100.00
2018-12-18T00:25:21.564Z,100.00
2018-12-18T00:27:50.736Z,100.00
2018-12-18T00:30:19.988Z,100.00
2018-12-18T00:32:49.190Z,100.00
2018-12-18T00:35:18.320Z,100.00
2018-12-18T00:37:47.564Z,100.00
2018-12-18T00:40:16.783Z,100.00
2018-12-18T00:42:45.938Z,100.00
2018-12-18T00:45:15.155Z,100.00
2018-12-18T00:47:45.302Z,100.00
2018-12-18T00:50:14.764Z,100.00
2018-12-18T00:52:43.978Z,100.00
2018-12-18T00:55:13.126Z,100.00
2018-12-18T00:57:42.275Z,100.00
2018-12-18T01:00:11.422Z,100.00
2018-12-18T01:02:40.616Z,100.00
2018-12-18T01:05:09.791Z,100.00
2018-12-18T01:07:39.101Z,100.00
2018-12-18T01:10:08.500Z,100.00
2018-12-18T01:12:37.683Z,100.00
2018-12-18T01:15:07.035Z,100.00
2018-12-18T01:17:36.180Z,100.00
2018-12-18T01:20:05.333Z,100.00
2018-12-18T01:22:34.561Z,100.00
2018-12-18T01:25:04.220Z,100.00
2018-12-18T01:27:33.398Z,100.00
2018-12-18T01:30:02.578Z,100.00
2018-12-18T01:32:31.701Z,100.00
2018-12-18T01:35:00.845Z,100.00
2018-12-18T01:37:29.977Z,100.00
2018-12-18T01:39:59.211Z,100.00
2018-12-18T01:42:28.373Z,100.00
2018-12-18T01:44:57.508Z,100.00
2018-12-18T01:47:26.695Z,100.00
2018-12-18T01:49:55.797Z,100.00
2018-12-18T01:52:24.953Z,100.00
2018-12-18T01:54:54.321Z,100.00
2018-12-18T01:57:23.483Z,100.00
2018-12-18T01:59:52.607Z,100.00
2018-12-18T02:02:21.807Z,100.00
2018-12-18T02:04:50.918Z,100.00
2018-12-18T02:07:20.073Z,100.00
2018-12-18T02:09:49.230Z,100.00
2018-12-18T02:12:18.345Z,100.00
2018-12-18T02:14:47.509Z,100.00
2018-12-18T02:17:16.812Z,100.00
2018-12-18T02:19:45.974Z,100.00
2018-12-18T02:22:15.089Z,100.00
2018-12-18T02:24:44.248Z,100.00
2018-12-18T02:29:48.989Z,100.00
2018-12-18T02:32:18.129Z,100.00
2018-12-18T02:34:47.365Z,100.00
2018-12-18T02:37:16.517Z,100.00
2018-12-18T02:39:45.648Z,100.00
2018-12-18T02:42:14.753Z,100.00
2018-12-18T02:44:43.894Z,100.00
2018-12-18T02:47:13.052Z,100.00
2018-12-18T02:49:42.341Z,100.00
2018-12-18T02:52:11.445Z,100.00
2018-12-18T02:54:40.616Z,100.00
2018-12-18T02:57:09.736Z,100.00
2018-12-18T02:59:40.652Z,100.00
2018-12-18T03:02:09.846Z,100.00
2018-12-18T03:04:39.020Z,100.00
2018-12-18T03:07:08.162Z,100.00
2018-12-18T03:09:37.435Z,100.00
2018-12-18T03:12:06.597Z,100.00
2018-12-18T03:14:35.755Z,100.00
2018-12-18T03:17:05.092Z,100.00
2018-12-18T03:19:34.289Z,100.00
2018-12-18T03:22:03.411Z,100.00
2018-12-18T03:24:32.555Z,100.00
2018-12-18T03:27:02.121Z,100.00
2018-12-18T03:29:31.257Z,100.00
2018-12-18T03:32:02.520Z,100.00
2018-12-18T03:34:31.657Z,100.00
2018-12-18T03:37:00.868Z,100.00
2018-12-18T03:39:30.018Z,100.00
2018-12-18T03:41:59.298Z,100.00
2018-12-18T03:44:28.449Z,100.00
2018-12-18T03:46:57.566Z,100.00
2018-12-18T03:49:26.821Z,100.00
2018-12-18T03:51:55.999Z,100.00
2018-12-18T03:54:25.170Z,100.00
2018-12-18T03:56:54.307Z,100.00
2018-12-18T03:59:23.509Z,100.00
2018-12-18T04:01:52.698Z,100.00
2018-12-18T04:04:21.868Z,100.00
2018-12-18T04:09:26.206Z,100.00
2018-12-18T04:12:01.015Z,100.00
2018-12-18T04:14:30.578Z,100.00
2018-12-18T04:16:59.804Z,100.00
2018-12-18T04:19:28.996Z,100.00
2018-12-18T04:21:58.207Z,100.00
2018-12-18T04:24:27.330Z,100.00
2018-12-18T04:26:57.671Z,100.00
2018-12-18T04:29:26.832Z,100.00
2018-12-18T04:31:55.994Z,100.00
2018-12-18T04:34:25.205Z,100.00
2018-12-18T04:36:54.326Z,100.00
2018-12-18T04:39:23.452Z,100.00
2018-12-18T04:41:52.732Z,100.00
2018-12-18T04:44:21.918Z,100.00
2018-12-18T04:46:51.033Z,100.00
2018-12-18T04:49:20.546Z,100.00
2018-12-18T04:51:49.745Z,100.00
2018-12-18T04:54:18.864Z,100.00
2018-12-18T04:56:48.009Z,100.00
2018-12-18T04:59:17.128Z,100.00
2018-12-18T05:01:49.324Z,100.00
2018-12-18T05:04:18.507Z,100.00
2018-12-18T05:06:47.821Z,100.00
2018-12-18T05:09:17.312Z,100.00
2018-12-18T05:11:46.489Z,100.00
2018-12-18T05:14:15.660Z,100.00
2018-12-18T05:16:44.825Z,100.00
2018-12-18T05:19:14.869Z,100.00
2018-12-18T05:21:44.110Z,100.00
2018-12-18T05:24:13.266Z,100.00
2018-12-18T05:26:42.440Z,100.00
2018-12-18T05:29:11.657Z,100.00
2018-12-18T05:31:40.801Z,100.00
2018-12-18T05:34:09.961Z,100.00
2018-12-18T05:36:39.125Z,100.00
2018-12-18T05:39:08.362Z,100.00
2018-12-18T05:41:37.498Z,100.00
2018-12-18T05:44:06.727Z,100.00
2018-12-18T05:46:35.855Z,100.00
2018-12-18T05:49:05.333Z,100.00
2018-12-18T05:51:34.467Z,100.00
2018-12-18T05:54:03.620Z,100.00
2018-12-18T05:56:32.881Z,100.00
2018-12-18T05:59:01.995Z,100.00
2018-12-18T06:01:31.154Z,100.00
2018-12-18T06:04:00.464Z,100.00
2018-12-18T06:06:29.681Z,100.00
2018-12-18T06:08:58.864Z,100.00
2018-12-18T06:11:28.040Z,100.00
2018-12-18T06:14:00.000Z,100.00
2018-12-18T06:16:29.187Z,100.00
2018-12-18T06:18:58.301Z,100.00
2018-12-18T06:21:49.136Z,100.00
2018-12-18T06:24:20.472Z,100.00
2018-12-18T06:26:49.755Z,100.00
2018-12-18T06:29:19.000Z,100.00
2018-12-18T06:31:48.230Z,100.00
2018-12-18T06:34:17.429Z,100.00
2018-12-18T06:36:46.979Z,100.00
2018-12-18T06:39:16.113Z,100.00
2018-12-18T06:41:45.371Z,100.00
2018-12-18T06:44:14.490Z,100.00
2018-12-18T06:46:43.761Z,100.00
2018-12-18T06:49:12.987Z,100.00
2018-12-18T06:51:42.265Z,100.00
2018-12-18T06:54:11.457Z,100.00
2018-12-18T06:56:40.701Z,100.00
2018-12-18T06:59:10.186Z,100.00
2018-12-18T07:01:39.428Z,100.00
2018-12-18T07:04:08.791Z,100.00
2018-12-18T07:06:37.948Z,100.00
2018-12-18T07:09:08.418Z,100.00
2018-12-18T07:11:37.679Z,100.00
2018-12-18T07:14:06.939Z,100.00
2018-12-18T07:16:36.141Z,100.00
2018-12-18T07:19:05.619Z,100.00
2018-12-18T07:21:34.872Z,100.00
2018-12-18T07:24:04.107Z,100.00
2018-12-18T07:26:33.300Z,100.00
2018-12-18T07:29:03.148Z,100.00
2018-12-18T07:31:32.336Z,100.00
2018-12-18T07:34:01.498Z,100.00
2018-12-18T07:36:30.673Z,100.00
2018-12-18T07:38:59.818Z,100.00
2018-12-18T07:41:28.989Z,100.00
2018-12-18T07:43:58.283Z,100.00
2018-12-18T07:46:27.475Z,100.00
2018-12-18T07:48:56.598Z,100.00
2018-12-18T07:51:26.451Z,100.00
2018-12-18T07:53:55.599Z,100.00
2018-12-18T07:56:24.817Z,100.00
2018-12-18T07:58:53.999Z,100.00
2018-12-18T08:01:23.291Z,100.00
2018-12-18T08:03:52.537Z,100.00
2018-12-18T08:06:21.720Z,100.00
2018-12-18T08:08:50.904Z,100.00
2018-12-18T08:11:20.137Z,100.00
2018-12-18T08:13:49.294Z,100.00
2018-12-18T08:16:18.471Z,100.00
2018-12-18T08:18:47.603Z,100.00
2018-12-18T08:21:16.828Z,100.00
2018-12-18T08:23:46.346Z,100.00
2018-12-18T08:26:15.483Z,100.00
2018-12-18T08:28:44.700Z,100.00
2018-12-18T08:31:13.981Z,100.00
2018-12-18T08:33:44.843Z,100.00
2018-12-18T08:36:14.017Z,100.00
2018-12-18T08:38:43.290Z,100.00
2018-12-18T08:41:12.501Z,100.00
2018-12-18T08:43:41.660Z,100.00
2018-12-18T08:46:10.812Z,97.72
2018-12-18T08:48:39.980Z,90.76
2018-12-18T08:51:09.170Z,89.21
2018-12-18T08:53:38.357Z,83.71
2018-12-18T08:56:07.486Z,80.82
2018-12-18T08:58:36.702Z,78.33
2018-12-18T09:01:05.862Z,78.92
2018-12-18T09:03:35.001Z,74.18
2018-12-18T09:06:04.191Z,73.35
2018-12-18T09:08:33.358Z,71.62
2018-12-18T09:11:02.499Z,70.98
2018-12-18T09:13:31.627Z,72.39
2018-12-18T09:16:00.780Z,69.27
2018-12-18T09:18:29.873Z,68.38
2018-12-18T09:20:59.038Z,68.62
2018-12-18T09:23:28.280Z,67.43
2018-12-18T09:25:57.902Z,68.10
2018-12-18T09:28:27.069Z,65.94
2018-12-18T09:30:56.290Z,65.41
2018-12-18T09:33:25.491Z,63.52
2018-12-18T09:36:04.278Z,65.00
2018-12-18T09:38:39.027Z,65.33
2018-12-18T09:41:13.948Z,67.96
2018-12-18T09:43:48.869Z,67.52
2018-12-18T09:46:18.033Z,66.76
2018-12-18T09:48:47.245Z,66.92
2018-12-18T09:51:16.465Z,65.01
2018-12-18T09:53:45.706Z,64.39
2018-12-18T09:56:14.889Z,67.48
2018-12-18T09:58:44.118Z,68.19
2018-12-18T10:01:13.317Z,68.72
2018-12-18T10:03:42.474Z,65.71
2018-12-18T10:06:11.681Z,63.61
2018-12-18T10:08:41.160Z,59.12
2018-12-18T10:11:10.291Z,56.58
2018-12-18T10:13:39.481Z,57.36
2018-12-18T10:16:08.837Z,55.31
2018-12-18T10:18:37.965Z,57.10
2018-12-18T10:21:07.207Z,57.64
2018-12-18T10:23:36.414Z,57.23
2018-12-18T10:26:05.530Z,59.29
2018-12-18T10:28:34.782Z,60.21
2018-12-18T10:31:03.952Z,58.53
2018-12-18T10:33:33.095Z,58.82
2018-12-18T10:36:03.062Z,55.62
2018-12-18T10:38:32.496Z,53.52
2018-12-18T10:41:01.647Z,54.07
2018-12-18T10:43:30.851Z,57.55
2018-12-18T10:46:00.017Z,56.61
2018-12-18T10:48:29.493Z,57.19
2018-12-18T10:50:58.610Z,57.77
2018-12-18T10:53:28.161Z,56.27
2018-12-18T10:55:57.277Z,59.78
2018-12-18T10:58:26.776Z,61.45
2018-12-18T11:01:01.899Z,64.82
2018-12-18T11:03:31.135Z,66.29
2018-12-18T11:06:00.288Z,68.74
2018-12-18T11:08:29.528Z,72.81
2018-12-18T11:10:58.782Z,76.88
2018-12-18T11:13:27.932Z,79.51
2018-12-18T11:15:57.095Z,79.54
2018-12-18T11:18:26.596Z,79.49
2018-12-18T11:20:55.799Z,77.72
2018-12-18T11:23:24.977Z,77.80
2018-12-18T11:25:54.119Z,77.93
2018-12-18T11:28:23.274Z,80.30
2018-12-18T11:30:52.412Z,80.80
2018-12-18T11:33:21.570Z,81.64
2018-12-18T11:35:50.845Z,81.50
2018-12-18T11:38:20.277Z,79.70
2018-12-18T11:40:49.388Z,77.06
2018-12-18T11:43:18.723Z,70.41
2018-12-18T11:45:47.886Z,65.62
2018-12-18T11:48:17.065Z,66.86
2018-12-18T11:50:46.484Z,70.50
2018-12-18T11:53:16.002Z,74.99
2018-12-18T11:55:45.235Z,76.44
2018-12-18T11:58:14.342Z,78.81
2018-12-18T12:00:43.732Z,79.54
2018-12-18T12:03:13.168Z,79.15
2018-12-18T12:05:42.368Z,79.00
2018-12-18T12:08:11.566Z,76.63
2018-12-18T12:10:40.796Z,70.58
2018-12-18T12:13:10.000Z,62.82
2018-12-18T12:15:39.205Z,60.68
2018-12-18T12:18:08.456Z,60.13
2018-12-18T12:20:37.764Z,60.53
2018-12-18T12:23:06.981Z,60.95
2018-12-18T12:25:36.104Z,62.74
2018-12-18T12:28:05.444Z,69.25
2018-12-18T12:30:34.572Z,76.87
2018-12-18T12:33:03.860Z,79.81
2018-12-18T12:35:33.071Z,81.20
2018-12-18T12:38:02.262Z,76.38
2018-12-18T12:40:31.431Z,68.95
2018-12-18T12:43:00.604Z,64.03
2018-12-18T12:45:29.882Z,62.18
2018-12-18T12:47:59.055Z,62.85
2018-12-18T12:50:28.271Z,63.14
2018-12-18T12:52:57.407Z,63.00
2018-12-18T12:55:26.681Z,61.29
2018-12-18T12:57:55.998Z,60.45
2018-12-18T13:00:25.202Z,62.38
2018-12-18T13:02:54.723Z,58.64
2018-12-18T13:05:23.859Z,58.61
2018-12-18T13:07:53.061Z,61.59
2018-12-18T13:10:22.236Z,60.92
2018-12-18T13:12:51.536Z,60.59
2018-12-18T13:15:20.714Z,60.65
2018-12-18T13:17:49.918Z,61.75
2018-12-18T13:20:19.096Z,63.95
2018-12-18T13:22:48.329Z,65.56
2018-12-18T13:25:17.570Z,64.66
2018-12-18T13:27:46.668Z,63.25
2018-12-18T13:30:15.854Z,64.28
2018-12-18T13:32:44.968Z,65.54
2018-12-18T13:35:14.503Z,65.78
2018-12-18T13:37:43.614Z,67.04
2018-12-18T13:40:13.003Z,64.59
2018-12-18T13:42:42.245Z,63.56
2018-12-18T13:45:11.438Z,65.38
2018-12-18T13:47:40.532Z,67.16
2018-12-18T13:50:09.846Z,68.47
2018-12-18T13:52:39.174Z,71.36
2018-12-18T13:55:08.273Z,75.39
2018-12-18T13:57:37.355Z,79.46
2018-12-18T14:00:06.728Z,84.03
2018-12-18T14:02:36.083Z,86.82
2018-12-18T14:05:05.717Z,90.03
2018-12-18T14:07:34.828Z,92.21
2018-12-18T14:10:05.613Z,93.81
2018-12-18T14:12:34.711Z,95.99
2018-12-18T14:15:04.010Z,96.31
2018-12-18T14:17:33.076Z,97.14
2018-12-18T14:20:02.420Z,97.44
2018-12-18T14:22:31.578Z,97.84
2018-12-18T14:25:00.732Z,98.08
2018-12-18T14:27:29.874Z,99.18
2018-12-18T14:29:59.020Z,99.55
2018-12-18T14:32:28.155Z,99.32
2018-12-18T14:34:57.644Z,99.04
2018-12-18T14:37:26.856Z,98.96
2018-12-18T14:39:56.018Z,98.96
2018-12-18T14:42:25.221Z,99.36
2018-12-18T14:44:54.399Z,100.00
2018-12-18T14:47:23.551Z,100.00
2018-12-18T14:49:52.694Z,100.00
2018-12-18T14:52:21.969Z,100.00
2018-12-18T14:54:51.189Z,100.00
2018-12-18T14:57:20.441Z,100.00
2018-12-18T14:59:49.582Z,100.00
2018-12-18T15:02:18.969Z,100.00
2018-12-18T15:04:48.233Z,100.00
2018-12-18T15:07:17.401Z,100.00
2018-12-18T15:09:46.542Z,100.00
2018-12-18T15:12:15.697Z,100.00
2018-12-18T15:14:44.819Z,100.00
2018-12-18T15:17:14.000Z,100.00
2018-12-18T15:19:43.222Z,100.00
2018-12-18T15:22:12.585Z,100.00
2018-12-18T15:24:41.830Z,100.00
2018-12-18T15:27:10.998Z,100.00
2018-12-18T15:32:15.807Z,100.00
2018-12-18T15:34:45.012Z,100.00
2018-12-18T15:37:14.196Z,100.00
2018-12-18T15:39:43.483Z,100.00
2018-12-18T15:42:12.733Z,100.00
2018-12-18T15:44:41.909Z,100.00
2018-12-18T15:47:11.124Z,100.00
2018-12-18T15:49:40.368Z,100.00
2018-12-18T15:52:09.637Z,100.00
2018-12-18T15:54:38.820Z,100.00
2018-12-18T15:57:08.012Z,100.00
2018-12-18T15:59:37.170Z,100.00
2018-12-18T16:02:06.470Z,100.00
2018-12-18T16:04:35.675Z,100.00
2018-12-18T16:07:04.839Z,100.00
2018-12-18T16:09:33.978Z,100.00
2018-12-18T16:12:03.159Z,100.00
2018-12-18T16:14:32.361Z,100.00
2018-12-18T16:17:02.820Z,100.00
2018-12-18T16:19:32.466Z,100.00
2018-12-18T16:22:01.633Z,100.00
2018-12-18T16:24:30.797Z,100.00
2018-12-18T16:27:00.547Z,100.00
2018-12-18T16:29:29.739Z,100.00
2018-12-18T16:31:58.920Z,99.76
2018-12-18T16:34:28.080Z,100.00
2018-12-18T16:36:57.243Z,100.00
2018-12-18T16:39:26.370Z,99.88
2018-12-18T16:41:55.594Z,100.00
2018-12-18T16:44:24.817Z,99.88
2018-12-18T16:46:54.022Z,100.00
2018-12-18T16:49:23.238Z,100.00
2018-12-18T16:51:52.566Z,99.81
2018-12-18T16:54:22.596Z,99.49
2018-12-18T16:56:51.885Z,100.00
2018-12-18T16:59:21.055Z,99.65
2018-12-18T17:01:50.214Z,99.93
2018-12-18T17:04:19.496Z,99.85
2018-12-18T17:06:48.644Z,99.77
2018-12-18T17:09:17.911Z,100.00
2018-12-18T17:11:47.040Z,100.00
2018-12-18T17:14:16.306Z,100.00
2018-12-18T17:16:45.485Z,100.00
2018-12-18T17:19:14.653Z,100.00
2018-12-18T17:21:43.827Z,100.00
2018-12-18T17:24:12.944Z,100.00
2018-12-18T17:26:42.090Z,100.00
2018-12-18T17:29:11.350Z,100.00
2018-12-18T17:31:40.508Z,100.00
2018-12-18T17:34:09.704Z,100.00
2018-12-18T17:36:38.863Z,100.00
2018-12-18T17:39:08.554Z,99.73
2018-12-18T17:41:37.763Z,99.59
2018-12-18T17:44:06.950Z,99.71
2018-12-18T17:46:36.113Z,99.60
2018-12-18T17:49:05.246Z,99.54
2018-12-18T17:51:34.404Z,99.84
2018-12-18T17:54:03.692Z,99.40
2018-12-18T17:56:32.902Z,99.86
2018-12-18T17:59:02.111Z,99.79
2018-12-18T18:01:31.301Z,99.93
2018-12-18T18:04:00.413Z,100.00
2018-12-18T18:06:29.581Z,99.73
2018-12-18T18:08:59.008Z,99.36
2018-12-18T18:11:28.930Z,100.00
2018-12-18T18:13:59.226Z,99.80
2018-12-18T18:16:28.544Z,99.78
2018-12-18T18:19:00.770Z,99.98
2018-12-18T18:21:29.985Z,100.00
2018-12-18T18:23:59.316Z,99.64
2018-12-18T18:26:28.510Z,100.00
2018-12-18T18:28:57.744Z,100.00
2018-12-18T18:31:26.859Z,99.71
2018-12-18T18:33:56.108Z,99.54
2018-12-18T18:36:25.438Z,100.00
2018-12-18T18:38:54.623Z,100.00
2018-12-18T18:41:23.872Z,99.76
2018-12-18T18:43:52.990Z,99.86
2018-12-18T18:46:22.154Z,99.35
2018-12-18T18:48:51.526Z,99.67
2018-12-18T18:51:20.725Z,99.57
2018-12-18T18:53:49.991Z,100.00
2018-12-18T18:56:19.178Z,99.85
2018-12-18T18:58:48.519Z,100.00
2018-12-18T19:01:18.052Z,99.83
2018-12-18T19:03:47.309Z,99.36
2018-12-18T19:06:16.584Z,99.60
2018-12-18T19:08:45.787Z,99.93
2018-12-18T19:11:14.936Z,99.07
2018-12-18T19:13:44.081Z,99.71
2018-12-18T19:16:13.256Z,98.58
2018-12-18T19:18:42.563Z,99.28
2018-12-18T19:21:11.776Z,99.48
2018-12-18T19:23:40.973Z,99.37
2018-12-18T19:26:10.275Z,99.13
2018-12-18T19:28:39.563Z,99.72
2018-12-18T19:31:08.782Z,99.19
2018-12-18T19:33:38.207Z,99.34
2018-12-18T19:36:07.326Z,98.89
2018-12-18T19:38:36.524Z,98.86
2018-12-18T19:41:06.033Z,99.04
2018-12-18T19:43:35.225Z,98.86
2018-12-18T19:46:10.353Z,99.48
2018-12-18T19:48:39.837Z,98.53
2018-12-18T19:51:09.051Z,98.73
2018-12-18T19:53:38.242Z,98.20
2018-12-18T19:56:07.475Z,98.04
2018-12-18T19:58:36.710Z,98.50
2018-12-18T20:01:05.920Z,98.23
2018-12-18T20:03:35.128Z,98.86
2018-12-18T20:06:04.348Z,98.42
2018-12-18T20:08:33.607Z,98.97
2018-12-18T20:11:03.339Z,98.54
2018-12-18T20:13:32.781Z,98.37
2018-12-18T20:16:02.118Z,98.65
2018-12-18T20:18:32.146Z,98.48
2018-12-18T20:21:01.431Z,98.20
2018-12-18T20:23:30.612Z,98.58
2018-12-18T20:26:00.146Z,98.11
2018-12-18T20:28:29.568Z,97.99
2018-12-18T20:30:58.803Z,97.80
2018-12-18T20:33:28.040Z,98.57
2018-12-18T20:35:57.208Z,98.68
2018-12-18T20:38:26.370Z,98.28
2018-12-18T20:40:55.549Z,98.85
2018-12-18T20:43:24.761Z,99.28
2018-12-18T20:45:53.949Z,99.51
2018-12-18T20:48:23.576Z,99.91
2018-12-18T20:50:52.720Z,99.71
2018-12-18T20:53:22.037Z,100.00
2018-12-18T20:55:51.834Z,100.00
2018-12-18T20:58:21.183Z,100.00
2018-12-18T21:00:50.405Z,100.00
2018-12-18T21:03:19.597Z,100.00
2018-12-18T21:05:48.881Z,100.00
2018-12-18T21:08:23.386Z,100.00
2018-12-18T21:10:49.289Z,100.00
2018-12-18T21:13:24.227Z,100.00
2018-12-18T21:15:53.425Z,100.00
2018-12-18T21:18:23.001Z,100.00
2018-12-18T21:20:52.210Z,100.00
2018-12-18T21:23:21.540Z,100.00
2018-12-18T21:25:51.786Z,100.00
2018-12-18T21:28:21.197Z,100.00
2018-12-18T21:30:50.447Z,100.00
2018-12-18T21:33:19.826Z,100.00
2018-12-18T21:35:49.059Z,100.00
2018-12-18T21:38:18.229Z,100.00
2018-12-18T21:40:47.372Z,100.00
2018-12-18T21:43:16.582Z,100.00
2018-12-18T21:45:45.755Z,100.00
2018-12-18T21:48:14.999Z,100.00
2018-12-18T21:50:44.239Z,100.00
2018-12-18T21:53:13.735Z,100.00
2018-12-18T21:55:42.877Z,100.00
2018-12-18T21:58:12.088Z,100.00
2018-12-18T22:00:41.253Z,100.00
2018-12-18T22:03:13.639Z,100.00
2018-12-18T22:05:42.896Z,100.00
2018-12-18T22:10:47.566Z,100.00
2018-12-18T22:13:16.719Z,100.00
2018-12-18T22:15:45.949Z,100.00
2018-12-18T22:18:15.167Z,100.00
2018-12-18T22:20:44.320Z,100.00
2018-12-18T22:23:13.591Z,100.00
2018-12-18T22:25:42.689Z,100.00
2018-12-18T22:28:11.927Z,100.00
2018-12-18T22:30:41.065Z,100.00
2018-12-18T22:33:10.221Z,100.00
2018-12-18T22:35:39.392Z,100.00
2018-12-18T22:38:08.521Z,100.00
2018-12-18T22:40:37.828Z,100.00
2018-12-18T22:43:07.078Z,100.00
2018-12-18T22:45:36.263Z,100.00
2018-12-18T22:48:05.378Z,100.00
2018-12-18T22:50:34.522Z,100.00
2018-12-18T22:53:03.691Z,100.00
2018-12-18T22:55:32.886Z,100.00
2018-12-18T22:58:02.636Z,100.00
2018-12-18T23:00:37.550Z,100.00
2018-12-18T23:03:07.386Z,100.00
2018-12-18T23:05:36.558Z,100.00
2018-12-18T23:08:05.993Z,100.00
2018-12-18T23:10:35.166Z,100.00
2018-12-18T23:13:04.394Z,100.00
2018-12-18T23:15:33.558Z,100.00
2018-12-18T23:18:02.847Z,100.00
2018-12-18T23:20:32.049Z,100.00
2018-12-18T23:23:01.182Z,100.00
2018-12-18T23:25:30.319Z,100.00
2018-12-18T23:27:59.478Z,100.00
2018-12-18T23:30:28.644Z,100.00
2018-12-18T23:32:57.835Z,100.00
2018-12-18T23:35:27.011Z,100.00
2018-12-18T23:37:56.235Z,100.00
2018-12-18T23:40:25.483Z,100.00
2018-12-18T23:42:54.640Z,100.00
2018-12-18T23:45:23.949Z,100.00
2018-12-18T23:47:53.122Z,100.00
2018-12-18T23:50:22.279Z,100.00
2018-12-18T23:52:51.475Z,100.00
2018-12-18T23:55:23.787Z,100.00
2018-12-18T23:57:52.967Z,100.00
